sensor_id;sensor_type;location;lat;lon;timestamp;P1;durP1;ratioP1;P2;durP2;ratioP2
41721;SDS011;27407;24.142;-110.310;2023-06-14T00:00:44;26.00;;;2.35;;
41721;SDS011;27407;24.142;-110.310;2023-06-14T00:03:11;55.15;;;4.32;;
41721;SDS011;27407;24.142;-110.310;2023-06-14T00:05:43;20.42;;;2.42;;
41721;SDS011;27407;24.142;-110.310;2023-06-14T00:08:11;12.63;;;1.90;;
41721;SDS011;27407;24.142;-110.310;2023-06-14T00:10:39;16.20;;;1.83;;
41721;SDS011;27407;24.142;-110.310;2023-06-14T00:15:50;8.02;;;1.73;;
41721;SDS011;27407;24.142;-110.310;2023-06-14T00:18:27;30.90;;;2.88;;
41721;SDS011;27407;24.142;-110.310;2023-06-14T00:20:55;16.17;;;2.45;;
41721;SDS011;27407;24.142;-110.310;2023-06-14T00:23:22;18.85;;;1.67;;
41721;SDS011;27407;24.142;-110.310;2023-06-14T00:25:48;33.88;;;3.15;;
41721;SDS011;27407;24.142;-110.310;2023-06-14T00:28:15;12.68;;;2.38;;
41721;SDS011;27407;24.142;-110.310;2023-06-14T00:30:42;11.55;;;2.47;;
41721;SDS011;27407;24.142;-110.310;2023-06-14T00:33:11;7.28;;;1.33;;
41721;SDS011;27407;24.142;-110.310;2023-06-14T00:35:38;5.88;;;1.58;;
41721;SDS011;27407;24.142;-110.310;2023-06-14T00:38:05;17.08;;;2.28;;
41721;SDS011;27407;24.142;-110.310;2023-06-14T00:40:32;20.92;;;2.10;;
41721;SDS011;27407;24.142;-110.310;2023-06-14T00:43:00;111.13;;;9.63;;
41721;SDS011;27407;24.142;-110.310;2023-06-14T00:45:26;8.15;;;1.90;;
41721;SDS011;27407;24.142;-110.310;2023-06-14T00:47:56;14.23;;;1.90;;
41721;SDS011;27407;24.142;-110.310;2023-06-14T00:50:24;25.48;;;1.80;;
41721;SDS011;27407;24.142;-110.310;2023-06-14T00:52:51;19.00;;;2.15;;
41721;SDS011;27407;24.142;-110.310;2023-06-14T00:55:18;11.15;;;2.08;;
41721;SDS011;27407;24.142;-110.310;2023-06-14T00:57:45;7.30;;;1.70;;
41721;SDS011;27407;24.142;-110.310;2023-06-14T01:00:12;15.38;;;2.30;;
41721;SDS011;27407;24.142;-110.310;2023-06-14T01:02:39;11.02;;;1.85;;
41721;SDS011;27407;24.142;-110.310;2023-06-14T01:05:06;9.25;;;1.85;;
41721;SDS011;27407;24.142;-110.310;2023-06-14T01:10:21;76.60;;;5.95;;
41721;SDS011;27407;24.142;-110.310;2023-06-14T01:13:35;19.83;;;2.88;;
41721;SDS011;27407;24.142;-110.310;2023-06-14T01:16:07;59.47;;;4.70;;
41721;SDS011;27407;24.142;-110.310;2023-06-14T01:18:34;18.52;;;2.28;;
41721;SDS011;27407;24.142;-110.310;2023-06-14T01:21:02;12.40;;;2.00;;
41721;SDS011;27407;24.142;-110.310;2023-06-14T01:23:31;12.50;;;2.00;;
41721;SDS011;27407;24.142;-110.310;2023-06-14T01:26:00;13.70;;;2.63;;
41721;SDS011;27407;24.142;-110.310;2023-06-14T01:28:31;12.88;;;2.05;;
41721;SDS011;27407;24.142;-110.310;2023-06-14T01:31:00;42.75;;;3.75;;
41721;SDS011;27407;24.142;-110.310;2023-06-14T01:33:31;39.72;;;3.70;;
41721;SDS011;27407;24.142;-110.310;2023-06-14T01:36:00;12.13;;;1.83;;
41721;SDS011;27407;24.142;-110.310;2023-06-14T01:38:28;20.67;;;2.20;;
41721;SDS011;27407;24.142;-110.310;2023-06-14T01:40:56;31.05;;;2.83;;
41721;SDS011;27407;24.142;-110.310;2023-06-14T01:43:25;78.45;;;7.97;;
41721;SDS011;27407;24.142;-110.310;2023-06-14T01:45:53;15.07;;;2.75;;
41721;SDS011;27407;24.142;-110.310;2023-06-14T01:48:21;12.00;;;1.60;;
41721;SDS011;27407;24.142;-110.310;2023-06-14T01:50:49;20.90;;;3.25;;
41721;SDS011;27407;24.142;-110.310;2023-06-14T01:53:16;22.45;;;2.95;;
41721;SDS011;27407;24.142;-110.310;2023-06-14T01:55:42;79.95;;;6.88;;
41721;SDS011;27407;24.142;-110.310;2023-06-14T01:58:13;37.10;;;4.82;;
41721;SDS011;27407;24.142;-110.310;2023-06-14T02:00:43;32.90;;;3.15;;
41721;SDS011;27407;24.142;-110.310;2023-06-14T02:03:11;16.35;;;2.33;;
41721;SDS011;27407;24.142;-110.310;2023-06-14T02:05:38;24.38;;;2.63;;
41721;SDS011;27407;24.142;-110.310;2023-06-14T02:08:05;133.65;;;11.02;;
41721;SDS011;27407;24.142;-110.310;2023-06-14T02:10:32;51.50;;;4.97;;
41721;SDS011;27407;24.142;-110.310;2023-06-14T02:12:59;16.63;;;2.65;;
41721;SDS011;27407;24.142;-110.310;2023-06-14T02:15:26;201.10;;;22.55;;
41721;SDS011;27407;24.142;-110.310;2023-06-14T02:18:01;140.80;;;13.35;;
41721;SDS011;27407;24.142;-110.310;2023-06-14T02:20:28;66.28;;;7.53;;
41721;SDS011;27407;24.142;-110.310;2023-06-14T02:22:56;42.20;;;3.70;;
41721;SDS011;27407;24.142;-110.310;2023-06-14T02:25:23;59.45;;;6.65;;
41721;SDS011;27407;24.142;-110.310;2023-06-14T02:27:50;70.57;;;5.40;;
41721;SDS011;27407;24.142;-110.310;2023-06-14T02:30:19;178.45;;;15.48;;
41721;SDS011;27407;24.142;-110.310;2023-06-14T02:32:46;78.05;;;8.65;;
41721;SDS011;27407;24.142;-110.310;2023-06-14T02:35:14;70.22;;;7.40;;
41721;SDS011;27407;24.142;-110.310;2023-06-14T02:37:40;83.60;;;8.32;;
41721;SDS011;27407;24.142;-110.310;2023-06-14T02:40:08;131.18;;;22.80;;
41721;SDS011;27407;24.142;-110.310;2023-06-14T02:42:35;124.43;;;20.13;;
41721;SDS011;27407;24.142;-110.310;2023-06-14T02:45:02;94.30;;;15.57;;
41721;SDS011;27407;24.142;-110.310;2023-06-14T02:47:34;37.58;;;5.03;;
41721;SDS011;27407;24.142;-110.310;2023-06-14T02:50:04;86.13;;;8.00;;
41721;SDS011;27407;24.142;-110.310;2023-06-14T02:52:31;83.57;;;8.07;;
41721;SDS011;27407;24.142;-110.310;2023-06-14T02:54:58;122.65;;;10.70;;
41721;SDS011;27407;24.142;-110.310;2023-06-14T02:57:25;81.25;;;7.55;;
41721;SDS011;27407;24.142;-110.310;2023-06-14T02:59:52;41.13;;;4.75;;
41721;SDS011;27407;24.142;-110.310;2023-06-14T03:02:18;42.97;;;4.47;;
41721;SDS011;27407;24.142;-110.310;2023-06-14T03:04:45;39.50;;;3.70;;
41721;SDS011;27407;24.142;-110.310;2023-06-14T03:07:12;152.60;;;17.55;;
41721;SDS011;27407;24.142;-110.310;2023-06-14T03:09:39;43.22;;;5.35;;
41721;SDS011;27407;24.142;-110.310;2023-06-14T03:12:06;30.75;;;4.00;;
41721;SDS011;27407;24.142;-110.310;2023-06-14T03:14:34;35.88;;;3.97;;
41721;SDS011;27407;24.142;-110.310;2023-06-14T03:17:02;30.42;;;4.53;;
41721;SDS011;27407;24.142;-110.310;2023-06-14T03:19:30;36.88;;;4.20;;
41721;SDS011;27407;24.142;-110.310;2023-06-14T03:21:56;31.65;;;3.70;;
41721;SDS011;27407;24.142;-110.310;2023-06-14T03:24:24;15.50;;;3.33;;
41721;SDS011;27407;24.142;-110.310;2023-06-14T03:26:54;30.30;;;3.40;;
41721;SDS011;27407;24.142;-110.310;2023-06-14T03:29:22;18.95;;;2.90;;
41721;SDS011;27407;24.142;-110.310;2023-06-14T03:31:58;53.28;;;4.47;;
41721;SDS011;27407;24.142;-110.310;2023-06-14T03:34:28;26.55;;;3.33;;
41721;SDS011;27407;24.142;-110.310;2023-06-14T03:36:55;29.25;;;3.20;;
41721;SDS011;27407;24.142;-110.310;2023-06-14T03:39:22;19.88;;;3.58;;
41721;SDS011;27407;24.142;-110.310;2023-06-14T03:41:49;16.52;;;2.80;;
41721;SDS011;27407;24.142;-110.310;2023-06-14T03:44:16;38.33;;;4.22;;
41721;SDS011;27407;24.142;-110.310;2023-06-14T03:46:44;53.20;;;4.78;;
41721;SDS011;27407;24.142;-110.310;2023-06-14T03:49:12;136.68;;;10.82;;
41721;SDS011;27407;24.142;-110.310;2023-06-14T03:51:39;60.85;;;5.45;;
41721;SDS011;27407;24.142;-110.310;2023-06-14T03:54:06;42.00;;;5.18;;
41721;SDS011;27407;24.142;-110.310;2023-06-14T03:56:32;37.00;;;3.83;;
41721;SDS011;27407;24.142;-110.310;2023-06-14T03:58:59;30.48;;;3.72;;
41721;SDS011;27407;24.142;-110.310;2023-06-14T04:01:26;92.68;;;7.47;;
41721;SDS011;27407;24.142;-110.310;2023-06-14T04:03:55;49.83;;;5.15;;
41721;SDS011;27407;24.142;-110.310;2023-06-14T04:06:23;36.47;;;5.70;;
41721;SDS011;27407;24.142;-110.310;2023-06-14T04:08:57;41.03;;;4.68;;
41721;SDS011;27407;24.142;-110.310;2023-06-14T04:11:27;37.78;;;4.60;;
41721;SDS011;27407;24.142;-110.310;2023-06-14T04:13:53;43.67;;;5.00;;
41721;SDS011;27407;24.142;-110.310;2023-06-14T04:16:21;58.60;;;5.28;;
41721;SDS011;27407;24.142;-110.310;2023-06-14T04:18:49;54.22;;;6.53;;
41721;SDS011;27407;24.142;-110.310;2023-06-14T04:21:18;49.10;;;5.35;;
41721;SDS011;27407;24.142;-110.310;2023-06-14T04:23:45;33.40;;;2.80;;
41721;SDS011;27407;24.142;-110.310;2023-06-14T04:26:12;62.53;;;6.32;;
41721;SDS011;27407;24.142;-110.310;2023-06-14T04:28:39;41.28;;;3.95;;
41721;SDS011;27407;24.142;-110.310;2023-06-14T04:31:07;41.22;;;4.18;;
41721;SDS011;27407;24.142;-110.310;2023-06-14T04:33:36;37.47;;;3.70;;
41721;SDS011;27407;24.142;-110.310;2023-06-14T04:36:12;23.75;;;3.05;;
41721;SDS011;27407;24.142;-110.310;2023-06-14T04:38:39;20.45;;;2.80;;
41721;SDS011;27407;24.142;-110.310;2023-06-14T04:41:06;21.13;;;3.00;;
41721;SDS011;27407;24.142;-110.310;2023-06-14T04:43:37;111.68;;;10.55;;
41721;SDS011;27407;24.142;-110.310;2023-06-14T04:46:04;108.43;;;13.95;;
41721;SDS011;27407;24.142;-110.310;2023-06-14T04:48:36;83.55;;;10.48;;
41721;SDS011;27407;24.142;-110.310;2023-06-14T04:51:08;52.10;;;5.70;;
41721;SDS011;27407;24.142;-110.310;2023-06-14T04:53:35;32.78;;;4.63;;
41721;SDS011;27407;24.142;-110.310;2023-06-14T04:56:02;24.38;;;3.42;;
41721;SDS011;27407;24.142;-110.310;2023-06-14T04:58:29;22.27;;;2.92;;
41721;SDS011;27407;24.142;-110.310;2023-06-14T05:00:57;54.60;;;5.57;;
41721;SDS011;27407;24.142;-110.310;2023-06-14T05:03:24;30.02;;;4.18;;
41721;SDS011;27407;24.142;-110.310;2023-06-14T05:05:52;37.80;;;4.30;;
41721;SDS011;27407;24.142;-110.310;2023-06-14T05:08:20;28.92;;;4.97;;
41721;SDS011;27407;24.142;-110.310;2023-06-14T05:10:51;20.95;;;4.05;;
41721;SDS011;27407;24.142;-110.310;2023-06-14T05:13:18;20.60;;;3.22;;
41721;SDS011;27407;24.142;-110.310;2023-06-14T05:15:45;28.77;;;4.72;;
41721;SDS011;27407;24.142;-110.310;2023-06-14T05:18:12;20.80;;;3.60;;
41721;SDS011;27407;24.142;-110.310;2023-06-14T05:20:41;37.63;;;4.80;;
41721;SDS011;27407;24.142;-110.310;2023-06-14T05:23:08;47.63;;;5.78;;
41721;SDS011;27407;24.142;-110.310;2023-06-14T05:25:41;25.30;;;4.25;;
41721;SDS011;27407;24.142;-110.310;2023-06-14T05:28:09;22.70;;;4.07;;
41721;SDS011;27407;24.142;-110.310;2023-06-14T05:30:37;34.33;;;4.70;;
41721;SDS011;27407;24.142;-110.310;2023-06-14T05:33:05;21.40;;;4.30;;
41721;SDS011;27407;24.142;-110.310;2023-06-14T05:35:32;29.52;;;5.15;;
41721;SDS011;27407;24.142;-110.310;2023-06-14T05:37:58;26.48;;;4.85;;
41721;SDS011;27407;24.142;-110.310;2023-06-14T05:40:25;62.25;;;7.25;;
41721;SDS011;27407;24.142;-110.310;2023-06-14T05:42:52;30.85;;;4.20;;
41721;SDS011;27407;24.142;-110.310;2023-06-14T05:45:18;28.55;;;5.05;;
41721;SDS011;27407;24.142;-110.310;2023-06-14T05:47:45;26.90;;;4.75;;
41721;SDS011;27407;24.142;-110.310;2023-06-14T05:50:11;47.40;;;5.57;;
41721;SDS011;27407;24.142;-110.310;2023-06-14T05:52:38;35.05;;;4.25;;
41721;SDS011;27407;24.142;-110.310;2023-06-14T05:55:05;32.42;;;3.90;;
41721;SDS011;27407;24.142;-110.310;2023-06-14T05:57:31;33.55;;;5.28;;
41721;SDS011;27407;24.142;-110.310;2023-06-14T05:59:58;20.10;;;4.15;;
41721;SDS011;27407;24.142;-110.310;2023-06-14T06:02:25;31.02;;;4.53;;
41721;SDS011;27407;24.142;-110.310;2023-06-14T06:04:51;34.75;;;5.03;;
41721;SDS011;27407;24.142;-110.310;2023-06-14T06:07:18;34.45;;;4.57;;
41721;SDS011;27407;24.142;-110.310;2023-06-14T06:09:45;18.65;;;4.22;;
41721;SDS011;27407;24.142;-110.310;2023-06-14T06:12:11;32.75;;;4.15;;
41721;SDS011;27407;24.142;-110.310;2023-06-14T06:14:38;36.00;;;5.68;;
41721;SDS011;27407;24.142;-110.310;2023-06-14T06:17:05;26.60;;;4.03;;
41721;SDS011;27407;24.142;-110.310;2023-06-14T06:19:31;23.20;;;4.75;;
41721;SDS011;27407;24.142;-110.310;2023-06-14T06:21:58;24.25;;;4.88;;
41721;SDS011;27407;24.142;-110.310;2023-06-14T06:24:25;28.10;;;4.82;;
41721;SDS011;27407;24.142;-110.310;2023-06-14T06:26:52;25.98;;;3.75;;
41721;SDS011;27407;24.142;-110.310;2023-06-14T06:29:19;26.98;;;4.45;;
41721;SDS011;27407;24.142;-110.310;2023-06-14T06:31:46;17.10;;;3.60;;
41721;SDS011;27407;24.142;-110.310;2023-06-14T06:34:12;25.65;;;3.65;;
41721;SDS011;27407;24.142;-110.310;2023-06-14T06:36:39;58.25;;;6.82;;
41721;SDS011;27407;24.142;-110.310;2023-06-14T06:39:05;32.10;;;4.07;;
41721;SDS011;27407;24.142;-110.310;2023-06-14T06:41:38;20.55;;;3.33;;
41721;SDS011;27407;24.142;-110.310;2023-06-14T06:44:05;20.90;;;3.67;;
41721;SDS011;27407;24.142;-110.310;2023-06-14T06:46:33;26.92;;;3.97;;
41721;SDS011;27407;24.142;-110.310;2023-06-14T06:49:00;19.70;;;3.35;;
41721;SDS011;27407;24.142;-110.310;2023-06-14T06:51:27;19.70;;;2.75;;
41721;SDS011;27407;24.142;-110.310;2023-06-14T06:53:53;19.13;;;3.38;;
41721;SDS011;27407;24.142;-110.310;2023-06-14T06:56:23;14.15;;;2.90;;
41721;SDS011;27407;24.142;-110.310;2023-06-14T06:58:51;13.70;;;3.42;;
41721;SDS011;27407;24.142;-110.310;2023-06-14T07:01:17;20.75;;;4.57;;
41721;SDS011;27407;24.142;-110.310;2023-06-14T07:03:45;21.90;;;3.53;;
41721;SDS011;27407;24.142;-110.310;2023-06-14T07:06:12;21.13;;;3.72;;
41721;SDS011;27407;24.142;-110.310;2023-06-14T07:08:38;24.70;;;4.25;;
41721;SDS011;27407;24.142;-110.310;2023-06-14T07:11:05;18.20;;;3.63;;
41721;SDS011;27407;24.142;-110.310;2023-06-14T07:13:34;20.15;;;3.80;;
41721;SDS011;27407;24.142;-110.310;2023-06-14T07:16:04;17.65;;;3.35;;
41721;SDS011;27407;24.142;-110.310;2023-06-14T07:18:31;25.38;;;4.03;;
41721;SDS011;27407;24.142;-110.310;2023-06-14T07:20:58;23.33;;;3.67;;
41721;SDS011;27407;24.142;-110.310;2023-06-14T07:23:25;23.55;;;3.47;;
41721;SDS011;27407;24.142;-110.310;2023-06-14T07:25:52;17.73;;;3.70;;
41721;SDS011;27407;24.142;-110.310;2023-06-14T07:28:18;18.50;;;3.30;;
41721;SDS011;27407;24.142;-110.310;2023-06-14T07:30:45;20.77;;;3.45;;
41721;SDS011;27407;24.142;-110.310;2023-06-14T07:33:13;20.63;;;3.22;;
41721;SDS011;27407;24.142;-110.310;2023-06-14T07:35:40;22.23;;;3.50;;
41721;SDS011;27407;24.142;-110.310;2023-06-14T07:38:11;22.58;;;3.53;;
41721;SDS011;27407;24.142;-110.310;2023-06-14T07:40:38;23.98;;;2.97;;
41721;SDS011;27407;24.142;-110.310;2023-06-14T07:43:04;15.90;;;3.40;;
41721;SDS011;27407;24.142;-110.310;2023-06-14T07:45:33;18.65;;;3.20;;
41721;SDS011;27407;24.142;-110.310;2023-06-14T07:48:00;23.90;;;3.38;;
41721;SDS011;27407;24.142;-110.310;2023-06-14T07:50:27;18.40;;;2.80;;
41721;SDS011;27407;24.142;-110.310;2023-06-14T07:52:54;18.27;;;3.67;;
41721;SDS011;27407;24.142;-110.310;2023-06-14T07:55:20;32.60;;;4.45;;
41721;SDS011;27407;24.142;-110.310;2023-06-14T07:57:47;16.35;;;2.83;;
41721;SDS011;27407;24.142;-110.310;2023-06-14T08:00:14;26.38;;;3.95;;
41721;SDS011;27407;24.142;-110.310;2023-06-14T08:02:45;16.25;;;2.80;;
41721;SDS011;27407;24.142;-110.310;2023-06-14T08:05:12;13.63;;;2.88;;
41721;SDS011;27407;24.142;-110.310;2023-06-14T08:07:39;17.38;;;3.40;;
41721;SDS011;27407;24.142;-110.310;2023-06-14T08:10:06;19.02;;;3.20;;
41721;SDS011;27407;24.142;-110.310;2023-06-14T08:12:33;19.95;;;3.10;;
41721;SDS011;27407;24.142;-110.310;2023-06-14T08:15:00;18.52;;;3.17;;
41721;SDS011;27407;24.142;-110.310;2023-06-14T08:17:26;25.17;;;3.50;;
41721;SDS011;27407;24.142;-110.310;2023-06-14T08:19:53;16.55;;;2.42;;
41721;SDS011;27407;24.142;-110.310;2023-06-14T08:22:23;25.00;;;4.25;;
41721;SDS011;27407;24.142;-110.310;2023-06-14T08:24:54;13.80;;;2.65;;
41721;SDS011;27407;24.142;-110.310;2023-06-14T08:27:20;12.57;;;2.75;;
41721;SDS011;27407;24.142;-110.310;2023-06-14T08:29:48;21.10;;;3.40;;
41721;SDS011;27407;24.142;-110.310;2023-06-14T08:32:14;22.15;;;3.45;;
41721;SDS011;27407;24.142;-110.310;2023-06-14T08:34:41;14.98;;;2.92;;
41721;SDS011;27407;24.142;-110.310;2023-06-14T08:37:08;12.95;;;2.92;;
41721;SDS011;27407;24.142;-110.310;2023-06-14T08:39:34;17.80;;;2.60;;
41721;SDS011;27407;24.142;-110.310;2023-06-14T08:42:01;11.00;;;2.80;;
41721;SDS011;27407;24.142;-110.310;2023-06-14T08:44:29;15.80;;;2.90;;
41721;SDS011;27407;24.142;-110.310;2023-06-14T08:46:56;14.55;;;3.00;;
41721;SDS011;27407;24.142;-110.310;2023-06-14T08:49:23;20.70;;;3.05;;
41721;SDS011;27407;24.142;-110.310;2023-06-14T08:51:57;17.88;;;3.28;;
41721;SDS011;27407;24.142;-110.310;2023-06-14T08:54:25;21.38;;;2.80;;
41721;SDS011;27407;24.142;-110.310;2023-06-14T08:57:02;25.95;;;3.47;;
41721;SDS011;27407;24.142;-110.310;2023-06-14T08:59:32;22.58;;;3.30;;
41721;SDS011;27407;24.142;-110.310;2023-06-14T09:02:05;13.20;;;2.88;;
41721;SDS011;27407;24.142;-110.310;2023-06-14T09:04:32;11.43;;;2.80;;
41721;SDS011;27407;24.142;-110.310;2023-06-14T09:06:58;19.08;;;3.00;;
41721;SDS011;27407;24.142;-110.310;2023-06-14T09:09:25;10.07;;;2.58;;
41721;SDS011;27407;24.142;-110.310;2023-06-14T09:11:52;17.30;;;3.22;;
41721;SDS011;27407;24.142;-110.310;2023-06-14T09:14:23;21.40;;;2.80;;
41721;SDS011;27407;24.142;-110.310;2023-06-14T09:16:56;14.40;;;2.22;;
41721;SDS011;27407;24.142;-110.310;2023-06-14T09:19:23;11.90;;;2.70;;
41721;SDS011;27407;24.142;-110.310;2023-06-14T09:21:50;31.67;;;3.88;;
41721;SDS011;27407;24.142;-110.310;2023-06-14T09:24:18;15.82;;;2.83;;
41721;SDS011;27407;24.142;-110.310;2023-06-14T09:26:48;15.10;;;3.03;;
41721;SDS011;27407;24.142;-110.310;2023-06-14T09:29:17;21.42;;;2.97;;
41721;SDS011;27407;24.142;-110.310;2023-06-14T09:31:47;19.45;;;2.65;;
41721;SDS011;27407;24.142;-110.310;2023-06-14T09:34:13;12.50;;;2.45;;
41721;SDS011;27407;24.142;-110.310;2023-06-14T09:36:44;15.95;;;2.67;;
41721;SDS011;27407;24.142;-110.310;2023-06-14T09:39:11;14.98;;;2.40;;
41721;SDS011;27407;24.142;-110.310;2023-06-14T09:41:44;13.32;;;2.70;;
41721;SDS011;27407;24.142;-110.310;2023-06-14T09:44:10;12.50;;;3.25;;
41721;SDS011;27407;24.142;-110.310;2023-06-14T09:46:40;13.70;;;3.13;;
41721;SDS011;27407;24.142;-110.310;2023-06-14T09:49:06;14.63;;;2.97;;
41721;SDS011;27407;24.142;-110.310;2023-06-14T09:51:34;20.73;;;2.65;;
41721;SDS011;27407;24.142;-110.310;2023-06-14T09:54:06;14.23;;;2.95;;
41721;SDS011;27407;24.142;-110.310;2023-06-14T09:56:37;13.52;;;2.80;;
41721;SDS011;27407;24.142;-110.310;2023-06-14T09:59:06;16.00;;;2.72;;
41721;SDS011;27407;24.142;-110.310;2023-06-14T10:01:38;12.30;;;2.35;;
41721;SDS011;27407;24.142;-110.310;2023-06-14T10:04:10;15.75;;;2.67;;
41721;SDS011;27407;24.142;-110.310;2023-06-14T10:06:40;13.77;;;3.20;;
41721;SDS011;27407;24.142;-110.310;2023-06-14T10:09:09;13.73;;;2.70;;
41721;SDS011;27407;24.142;-110.310;2023-06-14T10:11:36;13.48;;;3.20;;
41721;SDS011;27407;24.142;-110.310;2023-06-14T10:14:09;11.82;;;2.40;;
41721;SDS011;27407;24.142;-110.310;2023-06-14T10:19:39;10.35;;;2.78;;
41721;SDS011;27407;24.142;-110.310;2023-06-14T10:22:14;12.68;;;2.50;;
41721;SDS011;27407;24.142;-110.310;2023-06-14T10:24:48;9.93;;;2.17;;
41721;SDS011;27407;24.142;-110.310;2023-06-14T10:27:15;13.43;;;3.03;;
41721;SDS011;27407;24.142;-110.310;2023-06-14T10:32:20;13.70;;;3.15;;
41721;SDS011;27407;24.142;-110.310;2023-06-14T10:35:04;15.77;;;2.90;;
41721;SDS011;27407;24.142;-110.310;2023-06-14T10:37:34;15.20;;;2.60;;
41721;SDS011;27407;24.142;-110.310;2023-06-14T10:40:01;7.68;;;2.65;;
41721;SDS011;27407;24.142;-110.310;2023-06-14T10:42:32;17.08;;;2.90;;
41721;SDS011;27407;24.142;-110.310;2023-06-14T10:45:02;21.83;;;2.55;;
41721;SDS011;27407;24.142;-110.310;2023-06-14T10:47:32;16.05;;;2.80;;
41721;SDS011;27407;24.142;-110.310;2023-06-14T10:50:10;12.02;;;2.35;;
41721;SDS011;27407;24.142;-110.310;2023-06-14T10:52:40;13.20;;;2.53;;
41721;SDS011;27407;24.142;-110.310;2023-06-14T10:55:15;10.75;;;2.33;;
41721;SDS011;27407;24.142;-110.310;2023-06-14T10:57:52;26.83;;;3.70;;
41721;SDS011;27407;24.142;-110.310;2023-06-14T11:00:28;26.25;;;3.25;;
41721;SDS011;27407;24.142;-110.310;2023-06-14T11:08:33;18.95;;;2.97;;
41721;SDS011;27407;24.142;-110.310;2023-06-14T11:11:18;11.57;;;2.60;;
41721;SDS011;27407;24.142;-110.310;2023-06-14T11:13:49;19.42;;;2.58;;
41721;SDS011;27407;24.142;-110.310;2023-06-14T11:16:17;14.70;;;2.27;;
41721;SDS011;27407;24.142;-110.310;2023-06-14T11:18:44;13.47;;;2.97;;
41721;SDS011;27407;24.142;-110.310;2023-06-14T11:21:11;19.45;;;3.03;;
41721;SDS011;27407;24.142;-110.310;2023-06-14T11:23:48;15.60;;;2.63;;
41721;SDS011;27407;24.142;-110.310;2023-06-14T11:26:23;15.33;;;2.60;;
41721;SDS011;27407;24.142;-110.310;2023-06-14T11:29:00;20.13;;;3.03;;
41721;SDS011;27407;24.142;-110.310;2023-06-14T11:31:27;23.53;;;2.97;;
41721;SDS011;27407;24.142;-110.310;2023-06-14T11:33:55;15.10;;;2.87;;
41721;SDS011;27407;24.142;-110.310;2023-06-14T11:36:22;15.10;;;3.17;;
41721;SDS011;27407;24.142;-110.310;2023-06-14T11:39:01;20.90;;;3.33;;
41721;SDS011;27407;24.142;-110.310;2023-06-14T11:41:47;12.50;;;2.77;;
41721;SDS011;27407;24.142;-110.310;2023-06-14T11:44:13;14.00;;;2.50;;
41721;SDS011;27407;24.142;-110.310;2023-06-14T11:46:40;24.87;;;3.40;;
41721;SDS011;27407;24.142;-110.310;2023-06-14T11:49:07;16.13;;;3.23;;
41721;SDS011;27407;24.142;-110.310;2023-06-14T11:51:34;34.17;;;4.03;;
41721;SDS011;27407;24.142;-110.310;2023-06-14T11:54:02;19.30;;;2.77;;
41721;SDS011;27407;24.142;-110.310;2023-06-14T11:56:36;31.97;;;4.40;;
41721;SDS011;27407;24.142;-110.310;2023-06-14T11:59:03;18.13;;;3.60;;
41721;SDS011;27407;24.142;-110.310;2023-06-14T12:01:31;25.40;;;3.27;;
41721;SDS011;27407;24.142;-110.310;2023-06-14T12:03:58;21.53;;;3.43;;
41721;SDS011;27407;24.142;-110.310;2023-06-14T12:06:26;27.27;;;3.50;;
41721;SDS011;27407;24.142;-110.310;2023-06-14T12:08:58;26.53;;;4.40;;
41721;SDS011;27407;24.142;-110.310;2023-06-14T12:11:28;21.67;;;3.00;;
41721;SDS011;27407;24.142;-110.310;2023-06-14T12:13:58;17.30;;;3.50;;
41721;SDS011;27407;24.142;-110.310;2023-06-14T12:16:35;22.30;;;3.80;;
41721;SDS011;27407;24.142;-110.310;2023-06-14T12:19:13;43.47;;;5.60;;
41721;SDS011;27407;24.142;-110.310;2023-06-14T12:21:42;52.03;;;4.00;;
41721;SDS011;27407;24.142;-110.310;2023-06-14T12:24:13;23.27;;;3.53;;
41721;SDS011;27407;24.142;-110.310;2023-06-14T12:26:41;37.70;;;3.90;;
41721;SDS011;27407;24.142;-110.310;2023-06-14T12:29:08;20.30;;;3.70;;
41721;SDS011;27407;24.142;-110.310;2023-06-14T12:31:35;24.13;;;3.73;;
41721;SDS011;27407;24.142;-110.310;2023-06-14T12:34:02;24.83;;;3.60;;
41721;SDS011;27407;24.142;-110.310;2023-06-14T12:36:29;20.70;;;3.30;;
41721;SDS011;27407;24.142;-110.310;2023-06-14T12:38:57;20.40;;;3.30;;
41721;SDS011;27407;24.142;-110.310;2023-06-14T12:41:23;26.10;;;3.60;;
41721;SDS011;27407;24.142;-110.310;2023-06-14T12:43:52;30.90;;;4.10;;
41721;SDS011;27407;24.142;-110.310;2023-06-14T12:46:19;27.13;;;4.07;;
41721;SDS011;27407;24.142;-110.310;2023-06-14T12:48:46;58.00;;;6.33;;
41721;SDS011;27407;24.142;-110.310;2023-06-14T12:51:12;98.37;;;11.17;;
41721;SDS011;27407;24.142;-110.310;2023-06-14T12:53:39;175.03;;;15.90;;
41721;SDS011;27407;24.142;-110.310;2023-06-14T12:56:06;127.37;;;14.00;;
41721;SDS011;27407;24.142;-110.310;2023-06-14T12:58:33;121.43;;;12.07;;
41721;SDS011;27407;24.142;-110.310;2023-06-14T13:00:59;80.50;;;7.93;;
41721;SDS011;27407;24.142;-110.310;2023-06-14T13:03:26;88.07;;;9.00;;
41721;SDS011;27407;24.142;-110.310;2023-06-14T13:05:52;81.20;;;8.40;;
41721;SDS011;27407;24.142;-110.310;2023-06-14T13:08:19;58.80;;;7.47;;
41721;SDS011;27407;24.142;-110.310;2023-06-14T13:10:46;72.17;;;8.07;;
41721;SDS011;27407;24.142;-110.310;2023-06-14T13:13:12;80.30;;;7.20;;
41721;SDS011;27407;24.142;-110.310;2023-06-14T13:15:39;94.67;;;9.63;;
41721;SDS011;27407;24.142;-110.310;2023-06-14T13:18:06;40.47;;;4.50;;
41721;SDS011;27407;24.142;-110.310;2023-06-14T13:20:32;53.13;;;6.37;;
41721;SDS011;27407;24.142;-110.310;2023-06-14T13:22:59;34.07;;;4.70;;
41721;SDS011;27407;24.142;-110.310;2023-06-14T13:25:27;50.93;;;6.00;;
41721;SDS011;27407;24.142;-110.310;2023-06-14T13:27:54;38.37;;;5.77;;
41721;SDS011;27407;24.142;-110.310;2023-06-14T13:30:20;48.03;;;5.57;;
41721;SDS011;27407;24.142;-110.310;2023-06-14T13:32:47;70.57;;;6.97;;
41721;SDS011;27407;24.142;-110.310;2023-06-14T13:35:14;40.23;;;4.90;;
41721;SDS011;27407;24.142;-110.310;2023-06-14T13:37:41;38.23;;;4.67;;
41721;SDS011;27407;24.142;-110.310;2023-06-14T13:40:07;40.47;;;3.93;;
41721;SDS011;27407;24.142;-110.310;2023-06-14T13:42:34;68.63;;;7.70;;
41721;SDS011;27407;24.142;-110.310;2023-06-14T13:45:02;114.97;;;10.90;;
41721;SDS011;27407;24.142;-110.310;2023-06-14T13:47:29;110.10;;;10.30;;
41721;SDS011;27407;24.142;-110.310;2023-06-14T13:49:57;80.70;;;8.17;;
41721;SDS011;27407;24.142;-110.310;2023-06-14T13:52:24;78.13;;;9.70;;
41721;SDS011;27407;24.142;-110.310;2023-06-14T13:54:51;63.33;;;8.83;;
41721;SDS011;27407;24.142;-110.310;2023-06-14T13:57:18;52.80;;;5.53;;
41721;SDS011;27407;24.142;-110.310;2023-06-14T13:59:45;53.77;;;4.63;;
41721;SDS011;27407;24.142;-110.310;2023-06-14T14:02:12;56.00;;;7.13;;
41721;SDS011;27407;24.142;-110.310;2023-06-14T14:07:53;60.37;;;6.13;;
41721;SDS011;27407;24.142;-110.310;2023-06-14T14:10:20;46.17;;;5.63;;
41721;SDS011;27407;24.142;-110.310;2023-06-14T14:12:47;41.93;;;4.33;;
41721;SDS011;27407;24.142;-110.310;2023-06-14T14:15:13;70.13;;;5.40;;
41721;SDS011;27407;24.142;-110.310;2023-06-14T14:17:41;73.72;;;7.50;;
41721;SDS011;27407;24.142;-110.310;2023-06-14T14:20:08;83.05;;;8.82;;
41721;SDS011;27407;24.142;-110.310;2023-06-14T14:22:37;168.00;;;15.02;;